Time;durP1;ratioP1;P1;durP2;ratioP2;P2;SDS_P1;SDS_P2;PMS_P1;PMS_P2;Temp;Humidity;BMP_temperature;BMP_pressure;BME280_temperature;BME280_humidity;BME280_pressure;Samples;Min_cycle;Max_cycle;Signal;HPM_P1;HPM_P2
2022/03/05 00:00:36;;;;;;;42.13;17.97;;;;;;;4.93;54.33;100979.72;5138313;27;20257;-69
2022/03/05 00:03:04;;;;;;;40.70;17.80;;;;;;;4.82;54.96;100973.50;5140676;27;20235;-68
2022/03/05 00:05:33;;;;;;;43.20;17.73;;;;;;;4.84;54.93;100972.44;5145916;27;20680;-69
2022/03/05 00:08:03;;;;;;;38.03;15.77;;;;;;;4.76;55.18;100973.88;5143636;27;20239;-67
2022/03/05 00:10:31;;;;;;;41.23;16.53;;;;;;;4.56;55.38;100977.78;5144021;27;20259;-69
2022/03/05 00:12:59;;;;;;;34.57;15.33;;;;;;;4.76;55.13;100969.47;5146126;27;20681;-68
2022/03/05 00:15:28;;;;;;;33.83;14.47;;;;;;;4.83;54.84;100981.28;5146570;27;20319;-68
2022/03/05 00:17:56;;;;;;;36.80;14.83;;;;;;;4.74;54.86;100981.88;5136489;27;20219;-69
2022/03/05 00:20:24;;;;;;;35.63;15.40;;;;;;;4.85;54.80;100974.13;5145061;27;20597;-69
2022/03/05 00:22:54;;;;;;;34.43;14.67;;;;;;;4.76;55.14;100977.34;5141045;27;20231;-69
2022/03/05 00:25:24;;;;;;;39.23;15.57;;;;;;;4.77;54.84;100976.41;5141926;27;20255;-69
2022/03/05 00:27:52;;;;;;;37.40;15.40;;;;;;;4.80;54.84;100973.59;5137557;27;20208;-66
2022/03/05 00:30:19;;;;;;;33.67;14.60;;;;;;;4.46;55.79;100972.28;5144689;27;20305;-68
2022/03/05 00:32:47;;;;;;;38.00;16.80;;;;;;;4.50;55.79;100975.53;5139541;27;20755;-68
2022/03/05 00:35:15;;;;;;;40.30;14.70;;;;;;;4.61;55.76;100970.44;5142692;27;20333;-68
2022/03/05 00:37:43;;;;;;;37.87;15.00;;;;;;;4.69;55.15;100968.19;5137793;27;20319;-68
2022/03/05 00:40:12;;;;;;;34.97;14.97;;;;;;;4.48;55.67;100966.94;5141247;27;20209;-68
2022/03/05 00:42:40;;;;;;;36.40;15.13;;;;;;;4.47;55.79;100967.88;5138208;27;20279;-67
2022/03/05 00:45:09;;;;;;;42.67;16.73;;;;;;;4.58;55.44;100968.00;5142361;27;20737;-68
2022/03/05 00:47:37;;;;;;;34.67;15.00;;;;;;;4.18;56.31;100974.09;5137344;27;20256;-69
2022/03/05 00:50:07;;;;;;;34.20;14.60;;;;;;;4.49;55.82;100971.22;5132708;27;20315;-68
2022/03/05 00:52:36;;;;;;;33.70;14.67;;;;;;;4.53;55.49;100978.81;5134311;27;20206;-68
2022/03/05 00:55:04;;;;;;;30.93;13.87;;;;;;;4.52;55.52;100976.28;5141813;27;20253;-68
2022/03/05 00:57:33;;;;;;;28.47;12.97;;;;;;;4.50;55.44;100976.38;5142084;27;20345;-68
2022/03/05 01:00:04;;;;;;;35.47;14.10;;;;;;;4.12;56.70;100968.31;5138870;27;20205;-68
2022/03/05 01:02:32;;;;;;;35.37;15.47;;;;;;;4.47;55.78;100967.88;5138005;27;20215;-68
2022/03/05 01:05:00;;;;;;;29.53;13.40;;;;;;;4.34;56.36;100967.78;5132890;27;20213;-68
2022/03/05 01:07:28;;;;;;;37.63;15.27;;;;;;;4.23;56.32;100967.59;5136487;27;20257;-68
2022/03/05 01:09:56;;;;;;;31.67;13.60;;;;;;;4.43;55.75;100972.47;5135498;27;20231;-67
2022/03/05 01:12:32;;;;;;;33.87;13.73;;;;;;;4.38;56.17;100968.44;5149654;27;20715;-68
2022/03/05 01:15:03;;;;;;;30.20;12.97;;;;;;;4.30;55.97;100962.84;5162694;27;20216;-68
2022/03/05 01:17:31;;;;;;;33.97;14.07;;;;;;;4.11;56.27;100969.22;5163379;27;20215;-68
2022/03/05 01:19:58;;;;;;;32.63;13.73;;;;;;;4.33;56.05;100965.25;5159727;27;20208;-68
2022/03/05 01:22:27;;;;;;;34.87;13.93;;;;;;;4.20;56.53;100965.19;5155759;27;20298;-68
2022/03/05 01:24:54;;;;;;;31.87;13.33;;;;;;;3.96;57.30;100975.41;5157353;27;20210;-68
2022/03/05 01:27:22;;;;;;;32.10;13.13;;;;;;;4.27;56.28;100970.91;5154195;27;20206;-69
2022/03/05 01:29:50;;;;;;;33.87;13.50;;;;;;;3.89;57.17;100965.38;5162669;27;20210;-67
2022/03/05 01:32:19;;;;;;;31.63;13.70;;;;;;;4.12;56.63;100968.31;5158897;27;20209;-67
2022/03/05 01:34:49;;;;;;;32.53;13.47;;;;;;;4.07;56.56;100967.72;5156734;27;20218;-67
2022/03/05 01:37:18;;;;;;;28.60;13.13;;;;;;;4.00;56.98;100973.44;5158830;27;20266;-68
2022/03/05 01:39:46;;;;;;;26.60;11.97;;;;;;;3.65;58.13;100971.19;5157282;27;20206;-68
2022/03/05 01:42:13;;;;;;;32.17;12.73;;;;;;;3.85;57.75;100967.38;5159456;27;20301;-67
2022/03/05 01:44:41;;;;;;;31.00;12.07;;;;;;;3.83;57.52;100963.97;5156832;27;20258;-68
2022/03/05 01:47:10;;;;;;;31.10;13.30;;;;;;;4.04;56.56;100964.47;5162282;27;20214;-68
2022/03/05 01:49:39;;;;;;;25.07;12.30;;;;;;;3.91;57.36;100966.97;5157123;27;20261;-68
2022/03/05 01:52:07;;;;;;;31.97;13.57;;;;;;;3.97;56.76;100958.72;5157827;27;20227;-67
2022/03/05 01:54:37;;;;;;;27.53;12.13;;;;;;;4.04;56.41;100970.56;5154315;27;20221;-68
2022/03/05 01:57:06;;;;;;;28.90;11.77;;;;;;;4.01;56.65;100960.25;5153287;27;20211;-67
2022/03/05 01:59:34;;;;;;;27.63;11.67;;;;;;;4.09;56.41;100965.00;5157611;27;20305;-67
2022/03/05 02:02:02;;;;;;;22.63;10.83;;;;;;;3.96;56.51;100959.66;5160103;27;20292;-67
2022/03/05 02:04:30;;;;;;;28.13;12.80;;;;;;;3.93;56.67;100959.03;5157437;27;20212;-68
2022/03/05 02:07:00;;;;;;;25.20;11.40;;;;;;;3.68;57.49;100962.28;5154816;27;20221;-68
2022/03/05 02:09:41;;;;;;;30.17;12.13;;;;;;;3.71;57.58;100965.56;5156188;27;20389;-68
2022/03/05 02:12:09;;;;;;;24.63;11.57;;;;;;;3.82;57.43;100967.53;5161258;27;20661;-68
2022/03/05 02:14:40;;;;;;;24.77;11.93;;;;;;;3.91;56.86;100963.50;5160487;27;20735;-68
2022/03/05 02:17:10;;;;;;;26.07;11.60;;;;;;;3.81;57.34;100955.34;5158560;27;20267;-67
2022/03/05 02:19:39;;;;;;;33.93;12.60;;;;;;;3.89;57.04;100960.97;5160472;27;20284;-67
2022/03/05 02:22:10;;;;;;;28.97;12.27;;;;;;;3.91;56.96;100968.75;5159155;27;20593;-68
2022/03/05 02:24:39;;;;;;;28.83;12.00;;;;;;;3.82;57.15;100969.31;5160084;27;20617;-66
2022/03/05 02:27:08;;;;;;;26.57;11.33;;;;;;;3.88;56.91;100969.78;5158897;27;20215;-67
2022/03/05 02:29:37;;;;;;;32.70;13.20;;;;;;;3.83;56.86;100971.84;5162251;27;20448;-69
2022/03/05 02:32:06;;;;;;;25.90;10.67;;;;;;;3.93;56.54;100972.13;5162596;27;20219;-67
2022/03/05 02:34:34;;;;;;;26.20;12.43;;;;;;;3.75;57.14;100968.84;5161605;27;20208;-67
2022/03/05 02:37:03;;;;;;;27.93;12.30;;;;;;;3.73;57.23;100973.34;5159521;27;20238;-67
2022/03/05 02:39:32;;;;;;;29.03;11.73;;;;;;;3.85;56.71;100959.50;5166608;27;20204;-67
2022/03/05 02:42:05;;;;;;;27.33;12.00;;;;;;;3.92;56.42;100960.78;5168064;27;20197;-68
2022/03/05 02:44:37;;;;;;;27.90;12.20;;;;;;;3.88;56.41;100958.44;5161428;27;20200;-67
2022/03/05 02:47:15;;;;;;;25.80;11.13;;;;;;;3.92;56.56;100962.56;5164926;27;20205;-67
2022/03/05 02:49:51;;;;;;;26.83;11.53;;;;;;;3.76;56.77;100966.13;5161553;27;20221;-67
2022/03/05 02:52:19;;;;;;;26.23;12.10;;;;;;;3.79;56.72;100965.09;5158768;27;20833;-67
2022/03/05 02:55:02;;;;;;;34.13;12.40;;;;;;;3.84;56.64;100963.03;5160474;27;20299;-67
2022/03/05 02:57:31;;;;;;;26.63;11.37;;;;;;;3.89;56.58;100974.09;5161144;27;20265;-68
2022/03/05 02:59:58;;;;;;;29.50;10.90;;;;;;;3.85;56.79;100972.59;5161762;27;20207;-68
2022/03/05 03:02:29;;;;;;;29.53;12.30;;;;;;;3.73;57.03;100971.56;5158457;27;20680;-68
2022/03/05 03:04:57;;;;;;;23.00;10.93;;;;;;;3.77;56.98;100966.97;5157916;27;20220;-66
2022/03/05 03:07:27;;;;;;;25.50;10.73;;;;;;;3.56;57.50;100969.09;5163203;27;20565;-66
2022/03/05 03:09:56;;;;;;;25.97;11.57;;;;;;;3.69;57.00;100970.03;5162113;27;20200;-67
2022/03/05 03:12:30;;;;;;;27.30;11.53;;;;;;;3.43;57.61;100964.69;5164937;27;20235;-67
2022/03/05 03:14:57;;;;;;;26.97;11.37;;;;;;;3.29;58.40;100975.97;5158016;27;20304;-67
2022/03/05 03:17:25;;;;;;;25.57;11.20;;;;;;;3.59;57.76;100957.59;5161597;27;20248;-67
2022/03/05 03:19:54;;;;;;;25.27;11.17;;;;;;;3.69;56.91;100964.78;5167119;27;20390;-67
2022/03/05 03:22:22;;;;;;;26.27;10.97;;;;;;;3.65;57.15;100959.84;5161648;27;20220;-67
2022/03/05 03:24:51;;;;;;;24.47;11.37;;;;;;;3.24;58.44;100965.78;5161644;27;20237;-67
2022/03/05 03:27:20;;;;;;;29.07;10.97;;;;;;;3.43;58.04;100972.56;5164787;27;20676;-67
2022/03/05 03:29:47;;;;;;;32.47;12.10;;;;;;;3.51;57.69;100971.16;5160663;27;20207;-68
2022/03/05 03:32:15;;;;;;;26.73;12.23;;;;;;;3.47;57.66;100968.81;5161676;27;20308;-68
2022/03/05 03:34:45;;;;;;;26.33;11.00;;;;;;;3.46;57.91;100967.13;5160023;27;20566;-68
2022/03/05 03:37:13;;;;;;;26.77;12.73;;;;;;;3.51;57.84;100962.47;5165768;27;20302;-68
2022/03/05 03:39:40;;;;;;;25.97;11.63;;;;;;;3.56;57.44;100970.88;5160421;27;20213;-68
2022/03/05 03:42:13;;;;;;;33.57;12.53;;;;;;;3.44;58.04;100976.84;5161176;27;20200;-68
2022/03/05 03:44:51;;;;;;;27.87;11.50;;;;;;;3.47;58.26;100984.53;5163050;27;20237;-68
2022/03/05 03:47:24;;;;;;;30.33;12.20;;;;;;;3.54;57.83;100991.09;5160054;27;20304;-68
2022/03/05 03:50:00;;;;;;;29.60;12.30;;;;;;;3.21;58.86;100992.16;5160092;27;20212;-66
2022/03/05 03:52:28;;;;;;;24.73;10.90;;;;;;;3.50;58.02;100989.59;5157834;27;20226;-66
2022/03/05 03:55:00;;;;;;;25.17;11.67;;;;;;;3.15;59.00;100994.28;5160214;27;20671;-67
2022/03/05 03:57:28;;;;;;;39.50;12.77;;;;;;;3.33;58.44;100994.06;5160889;27;20295;-67
2022/03/05 03:59:57;;;;;;;32.37;13.60;;;;;;;3.26;58.61;100997.09;5160989;27;20295;-67
2022/03/05 04:02:25;;;;;;;28.50;11.80;;;;;;;3.34;58.38;100997.53;5161993;27;20295;-67
2022/03/05 04:04:53;;;;;;;28.07;11.13;;;;;;;3.25;58.59;100995.44;5159010;27;20212;-67
2022/03/05 04:10:17;;;;;;;29.77;12.37;;;;;;;3.27;58.80;100997.03;5139656;27;20208;-67
2022/03/05 04:12:45;;;;;;;32.87;12.73;;;;;;;3.34;58.12;101000.16;5141537;27;20273;-68
2022/03/05 04:15:14;;;;;;;28.40;11.63;;;;;;;3.34;58.23;100990.47;5140889;27;20248;-69
2022/03/05 04:17:41;;;;;;;30.93;12.07;;;;;;;3.29;58.40;100994.31;5138264;27;20209;-67
2022/03/05 04:20:10;;;;;;;27.37;12.73;;;;;;;3.29;58.42;100987.31;5141466;27;20209;-68
2022/03/05 04:22:38;;;;;;;29.73;12.33;;;;;;;3.13;58.73;100991.75;5137856;27;20201;-68
2022/03/05 04:25:06;;;;;;;29.37;11.60;;;;;;;3.07;58.98;100986.88;5136814;27;20240;-68
2022/03/05 04:27:35;;;;;;;27.60;10.97;;;;;;;3.17;58.89;100988.00;5144200;27;20351;-68
2022/03/05 04:30:03;;;;;;;28.50;11.20;;;;;;;3.15;58.81;100983.81;5144853;27;20226;-68
2022/03/05 04:32:32;;;;;;;31.80;12.80;;;;;;;3.14;58.91;100995.22;5138663;27;20265;-68
2022/03/05 04:35:00;;;;;;;28.90;12.13;;;;;;;3.23;58.76;100995.53;5138596;27;20234;-68
2022/03/05 04:37:30;;;;;;;32.47;12.90;;;;;;;3.14;59.19;100995.22;5134370;27;20380;-68
2022/03/05 04:39:57;;;;;;;33.30;12.63;;;;;;;3.20;58.59;100995.69;5134958;27;20224;-68
2022/03/05 04:42:25;;;;;;;27.70;12.30;;;;;;;3.13;58.77;100991.75;5137161;27;20251;-68
2022/03/05 04:44:53;;;;;;;31.80;13.17;;;;;;;3.18;58.56;101005.41;5134434;27;20534;-68
2022/03/05 04:47:30;;;;;;;28.37;12.17;;;;;;;2.78;60.17;101000.75;5139359;27;20623;-68
2022/03/05 04:49:59;;;;;;;29.07;11.33;;;;;;;3.00;59.52;101001.22;5142106;27;20674;-68
2022/03/05 04:52:27;;;;;;;31.43;11.53;;;;;;;3.08;59.12;101001.63;5136705;27;20317;-68
2022/03/05 04:54:54;;;;;;;26.73;11.17;;;;;;;3.06;59.32;101003.50;5137327;27;20215;-67
2022/03/05 04:57:25;;;;;;;32.20;11.57;;;;;;;2.96;59.50;101004.97;5135300;27;20228;-67
2022/03/05 04:59:56;;;;;;;35.60;12.47;;;;;;;3.08;58.85;101009.50;5144327;27;20236;-67
2022/03/05 05:02:24;;;;;;;31.47;13.00;;;;;;;2.84;59.86;101005.63;5140646;27;20868;-66
2022/03/05 05:04:52;;;;;;;32.43;12.97;;;;;;;3.03;59.03;101009.75;5138053;27;20718;-67
2022/03/05 05:07:21;;;;;;;30.03;13.17;;;;;;;2.97;59.85;101011.91;5138449;27;20293;-66
2022/03/05 05:09:49;;;;;;;36.33;13.53;;;;;;;2.74;60.28;101010.53;5137433;27;20236;-67
2022/03/05 05:12:23;;;;;;;30.07;12.13;;;;;;;2.88;60.03;101013.25;5134651;27;20320;-66
2022/03/05 05:14:50;;;;;;;28.33;12.03;;;;;;;2.97;59.42;101011.91;5142273;27;20236;-67
2022/03/05 05:17:18;;;;;;;30.43;12.97;;;;;;;2.88;59.78;101020.28;5137003;27;20212;-67
2022/03/05 05:19:46;;;;;;;29.77;12.43;;;;;;;2.84;59.66;101014.34;5138558;27;20560;-67
2022/03/05 05:22:14;;;;;;;31.40;12.87;;;;;;;2.88;59.70;101022.88;5136451;27;20211;-66
2022/03/05 05:24:43;;;;;;;30.57;12.67;;;;;;;2.85;59.71;101018.66;5142262;27;20216;-66
2022/03/05 05:27:11;;;;;;;29.93;12.23;;;;;;;2.87;59.64;101024.66;5141715;27;20200;-66
2022/03/05 05:29:39;;;;;;;28.23;11.83;;;;;;;2.78;59.61;101019.09;5137669;27;20228;-67
2022/03/05 05:32:10;;;;;;;31.83;12.67;;;;;;;2.78;60.11;101026.94;5137890;27;20278;-67
2022/03/05 05:34:38;;;;;;;32.60;13.53;;;;;;;2.58;60.44;101022.78;5133067;27;20242;-67
2022/03/05 05:37:14;;;;;;;32.07;12.90;;;;;;;2.66;60.29;101028.47;5138541;27;20471;-68
2022/03/05 05:39:43;;;;;;;30.53;11.97;;;;;;;2.60;60.59;101020.94;5135473;27;20664;-68
2022/03/05 05:42:11;;;;;;;31.07;12.20;;;;;;;2.78;60.04;101034.81;5132664;27;20641;-67
2022/03/05 05:44:39;;;;;;;38.20;13.20;;;;;;;2.81;59.66;101038.13;5135512;27;20211;-67
2022/03/05 05:47:11;;;;;;;31.50;11.63;;;;;;;2.64;60.44;101028.53;5131227;27;20214;-67
2022/03/05 05:49:39;;;;;;;31.40;12.30;;;;;;;2.68;60.24;101036.22;5141705;27;20663;-68
2022/03/05 05:52:08;;;;;;;31.07;12.03;;;;;;;2.72;60.01;101036.00;5135099;27;20212;-68
2022/03/05 05:54:36;;;;;;;29.50;12.70;;;;;;;2.81;59.74;101032.03;5133077;27;20251;-68
2022/03/05 05:57:06;;;;;;;28.97;12.90;;;;;;;2.83;59.74;101045.84;5142530;27;20220;-68
2022/03/05 05:59:33;;;;;;;26.47;12.13;;;;;;;2.58;60.25;101034.13;5135780;27;20278;-68
2022/03/05 06:02:01;;;;;;;37.50;12.70;;;;;;;2.75;60.19;101038.44;5137223;27;20216;-68
2022/03/05 06:04:29;;;;;;;29.10;12.90;;;;;;;2.53;60.76;101032.69;5140630;27;20254;-68
2022/03/05 06:06:58;;;;;;;29.93;13.03;;;;;;;2.60;60.49;101034.03;5136774;27;20240;-66
2022/03/05 06:09:26;;;;;;;26.10;11.73;;;;;;;2.71;59.83;101038.69;5133340;27;20437;-67
2022/03/05 06:11:55;;;;;;;30.80;12.10;;;;;;;2.46;60.74;101037.38;5141267;27;20205;-67
2022/03/05 06:14:24;;;;;;;35.70;13.97;;;;;;;2.29;61.75;101040.06;5140031;27;20233;-67
2022/03/05 06:16:52;;;;;;;33.50;13.63;;;;;;;2.61;60.61;101047.06;5164597;27;20228;-69
2022/03/05 06:19:20;;;;;;;28.63;12.63;;;;;;;2.74;60.19;101048.97;5160225;27;20209;-67
2022/03/05 06:21:47;;;;;;;35.60;12.80;;;;;;;2.44;61.38;101052.34;5164107;27;20207;-67
2022/03/05 06:24:15;;;;;;;35.97;13.90;;;;;;;2.73;59.91;101056.00;5162150;27;20721;-68
2022/03/05 06:26:43;;;;;;;32.37;13.13;;;;;;;2.69;60.03;101058.88;5164367;27;20299;-67
2022/03/05 06:29:11;;;;;;;36.42;19.05;;;;;;;2.62;60.58;101053.97;5157212;27;20507;-62
2022/03/05 06:31:40;;;;;;;38.27;14.77;;;;;;;2.78;60.30;101061.00;5160694;27;20216;-62
2022/03/05 06:34:08;;;;;;;31.87;12.57;;;;;;;2.88;59.52;101062.19;5158074;27;20255;-61
2022/03/05 06:36:35;;;;;;;28.43;13.07;;;;;;;2.80;59.70;101072.25;5160081;27;20218;-62
2022/03/05 06:39:04;;;;;;;32.30;13.20;;;;;;;2.85;59.75;101060.56;5159002;27;20226;-60
2022/03/05 06:41:34;;;;;;;33.30;13.60;;;;;;;2.86;59.65;101071.91;5161086;27;20212;-59
2022/03/05 06:44:02;;;;;;;35.53;13.53;;;;;;;2.91;59.70;101075.09;5156107;27;20217;-61
2022/03/05 06:46:29;;;;;;;29.47;12.27;;;;;;;2.70;60.06;101076.28;5154340;27;20212;-61
2022/03/05 06:48:59;;;;;;;32.43;13.13;;;;;;;2.90;59.54;101084.72;5145676;27;20247;-61
2022/03/05 06:51:26;;;;;;;31.33;12.67;;;;;;;2.99;59.34;101080.78;5156147;27;20569;-61
2022/03/05 06:53:54;;;;;;;31.47;12.87;;;;;;;2.99;59.09;101089.47;5156652;27;20259;-60
2022/03/05 06:56:22;;;;;;;33.47;13.97;;;;;;;2.94;59.62;101085.41;5159141;27;20705;-60
2022/03/05 06:58:50;;;;;;;34.70;14.27;;;;;;;2.94;59.27;101083.63;5158261;27;20284;-61
2022/03/05 07:01:18;;;;;;;33.47;15.17;;;;;;;3.01;59.33;101092.00;5162902;27;20218;-62
2022/03/05 07:03:46;;;;;;;32.47;13.97;;;;;;;3.09;59.13;101089.78;5169605;27;20669;-61
2022/03/05 07:06:15;;;;;;;33.50;13.60;;;;;;;3.06;59.43;101094.38;5169636;27;20212;-62
2022/03/05 07:08:42;;;;;;;31.73;13.83;;;;;;;3.08;59.08;101093.34;5157511;27;20307;-62
2022/03/05 07:11:35;;;;;;;35.63;14.47;;;;;;;3.02;59.40;101099.78;5169304;27;20204;-61
2022/03/05 07:14:03;;;;;;;26.53;12.53;;;;;;;3.16;58.94;101098.19;5165154;27;20219;-60
2022/03/05 07:16:31;;;;;;;32.70;13.70;;;;;;;3.11;59.45;101103.66;5162407;27;20205;-60
2022/03/05 07:18:58;;;;;;;33.13;15.23;;;;;;;3.22;59.14;101103.91;5168098;27;20726;-60
2022/03/05 07:21:28;;;;;;;32.37;13.50;;;;;;;3.19;59.37;101111.09;5169143;27;20208;-60
2022/03/05 07:23:56;;;;;;;32.93;13.83;;;;;;;3.28;58.96;101111.44;5162052;27;20668;-61
2022/03/05 07:26:23;;;;;;;32.07;14.30;;;;;;;3.29;59.27;101117.53;5165735;27;20208;-60
2022/03/05 07:29:01;;;;;;;36.20;15.73;;;;;;;3.47;58.67;101110.38;5163482;27;20223;-61
2022/03/05 07:31:28;;;;;;;31.67;13.93;;;;;;;3.45;58.91;101114.88;5163292;27;20244;-61
2022/03/05 07:33:56;;;;;;;25.87;12.63;;;;;;;3.42;59.09;101117.69;5165502;27;20237;-61
2022/03/05 07:36:24;;;;;;;33.33;15.10;;;;;;;3.55;58.80;101118.66;5160310;27;20299;-61
2022/03/05 07:38:53;;;;;;;32.40;14.77;;;;;;;3.57;58.56;101116.81;5165948;27;20214;-61
2022/03/05 07:41:21;;;;;;;29.97;13.43;;;;;;;3.22;60.03;101119.66;5167195;27;20235;-61
2022/03/05 07:43:52;;;;;;;28.83;13.50;;;;;;;3.55;58.90;101118.66;5166819;27;20228;-61
2022/03/05 07:46:20;;;;;;;34.10;14.63;;;;;;;3.62;58.98;101120.00;5161671;27;20600;-61
2022/03/05 07:48:47;;;;;;;31.47;14.10;;;;;;;3.67;58.98;101123.22;5164640;27;20703;-61
2022/03/05 07:51:15;;;;;;;32.10;14.07;;;;;;;3.71;58.80;101119.47;5166045;27;20338;-61
2022/03/05 07:53:43;;;;;;;33.97;14.87;;;;;;;3.81;58.76;101122.41;5159519;27;20375;-61
2022/03/05 07:56:12;;;;;;;31.30;14.67;;;;;;;3.69;59.53;101121.34;5166218;27;20292;-61
2022/03/05 07:58:40;;;;;;;30.80;14.40;;;;;;;3.87;58.96;101127.31;5165845;27;20247;-61
2022/03/05 08:01:08;;;;;;;32.23;14.53;;;;;;;3.94;58.82;101132.13;5166120;27;20215;-61
2022/03/05 08:03:36;;;;;;;37.13;14.97;;;;;;;4.01;58.67;101128.19;5160416;27;20446;-61
2022/03/05 08:06:13;;;;;;;33.23;14.63;;;;;;;4.11;58.11;101128.50;5158346;27;20600;-61
2022/03/05 08:08:41;;;;;;;30.13;13.83;;;;;;;4.26;58.01;101130.19;5156182;27;20774;-60
2022/03/05 08:11:08;;;;;;;30.90;14.17;;;;;;;4.30;58.16;101126.47;5164617;27;20205;-62
2022/03/05 08:13:48;;;;;;;30.50;14.50;;;;;;;4.46;58.16;101123.75;5164762;27;20565;-62
2022/03/05 08:16:16;;;;;;;34.47;15.83;;;;;;;4.69;57.25;101125.81;5157290;27;20237;-62
2022/03/05 08:18:44;;;;;;;33.43;15.53;;;;;;;5.42;54.94;101129.06;5163274;27;20213;-62
2022/03/05 08:21:14;;;;;;;34.23;14.90;;;;;;;5.96;53.30;101131.66;5163628;27;20218;-62
2022/03/05 08:23:42;;;;;;;30.17;14.57;;;;;;;6.77;51.02;101124.31;5154193;27;20557;-61
2022/03/05 08:26:24;;;;;;;32.63;14.80;;;;;;;7.39;49.71;101134.78;5168193;27;20211;-60
2022/03/05 08:28:54;;;;;;;29.93;15.07;;;;;;;9.17;45.03;101121.94;5164314;27;20215;-62
2022/03/05 08:31:22;;;;;;;30.47;15.07;;;;;;;7.94;47.53;101123.63;5163995;27;20303;-62
2022/03/05 08:33:49;;;;;;;28.67;14.10;;;;;;;7.15;49.18;101125.06;5164213;27;20550;-62
2022/03/05 08:36:19;;;;;;;30.87;15.50;;;;;;;8.22;47.21;101127.66;5161567;27;20400;-62
2022/03/05 08:38:47;;;;;;;28.87;14.53;;;;;;;8.27;46.07;101131.63;5157609;27;20212;-61
2022/03/05 08:41:15;;;;;;;27.60;15.17;;;;;;;9.70;43.80;101132.59;5160137;27;20206;-62
2022/03/05 08:43:43;;;;;;;31.63;15.87;;;;;;;9.62;42.57;101133.25;5160237;27;20547;-62
2022/03/05 08:46:24;;;;;;;30.20;15.93;;;;;;;8.10;46.83;101137.34;5164377;27;20300;-62
2022/03/05 08:48:52;;;;;;;35.40;16.10;;;;;;;10.54;42.05;101131.69;5163775;27;20218;-63
2022/03/05 08:51:19;;;;;;;31.37;16.77;;;;;;;9.71;43.29;101136.94;5157062;27;20220;-63
2022/03/05 08:53:47;;;;;;;31.30;16.93;;;;;;;13.01;38.02;101132.03;5162148;27;20212;-62
2022/03/05 08:56:15;;;;;;;35.53;18.03;;;;;;;18.34;29.17;101126.03;5165776;27;20209;-62
2022/03/05 08:58:42;;;;;;;36.50;16.77;;;;;;;17.67;29.04;101126.78;5162903;27;20409;-63
2022/03/05 09:01:10;;;;;;;27.47;16.00;;;;;;;19.62;26.70;101130.03;5162692;27;20208;-64
2022/03/05 09:03:39;;;;;;;27.57;16.27;;;;;;;18.28;28.25;101124.09;5163691;27;20215;-65
2022/03/05 09:06:08;;;;;;;27.07;16.20;;;;;;;16.66;30.05;101127.72;5161761;27;20577;-62
2022/03/05 09:08:37;;;;;;;28.00;16.50;;;;;;;16.25;30.05;101129.63;5160814;27;20279;-62
2022/03/05 09:11:05;;;;;;;26.77;15.90;;;;;;;21.63;24.45;101125.56;5157110;27;20333;-63
2022/03/05 09:13:33;;;;;;;29.40;16.27;;;;;;;23.65;21.88;101121.91;5160914;27;20250;-64
2022/03/05 09:16:01;;;;;;;26.90;16.43;;;;;;;24.40;20.91;101124.66;5163194;27;20303;-62
2022/03/05 09:18:29;;;;;;;23.90;16.20;;;;;;;22.42;22.33;101114.84;5163833;27;20208;-62
2022/03/05 09:20:58;;;;;;;24.15;16.00;;;;;;;21.71;23.31;101122.69;5160995;27;20574;-63
2022/03/05 09:23:26;;;;;;;22.30;16.38;;;;;;;23.76;21.15;101120.34;5161324;27;20224;-63
2022/03/05 09:25:53;;;;;;;26.23;17.30;;;;;;;24.58;20.46;101122.81;5162478;27;20446;-64
2022/03/05 09:28:27;;;;;;;24.70;17.55;;;;;;;25.32;19.59;101102.75;5166186;27;20213;-63
2022/03/05 09:30:54;;;;;;;29.75;16.35;;;;;;;23.15;21.12;101116.28;5164883;27;20638;-63
2022/03/05 09:33:22;;;;;;;21.10;16.08;;;;;;;17.92;26.88;101114.00;5163535;27;20230;-62
2022/03/05 09:35:54;;;;;;;24.25;16.45;;;;;;;21.90;22.85;101108.34;5157525;27;20236;-63
2022/03/05 09:38:23;;;;;;;19.30;15.27;;;;;;;20.18;24.26;101109.44;5154957;27;20249;-63
2022/03/05 09:40:51;;;;;;;18.98;15.20;;;;;;;20.63;23.27;101108.13;5161452;27;20472;-63
2022/03/05 09:43:23;;;;;;;17.70;14.20;;;;;;;21.50;22.10;101103.94;5160180;27;20326;-62
2022/03/05 09:45:51;;;;;;;17.20;13.70;;;;;;;21.90;21.16;101105.66;5165228;27;20200;-63
2022/03/05 09:48:33;;;;;;;15.98;12.27;;;;;;;23.25;20.69;101097.72;5162625;27;20209;-62
2022/03/05 09:53:49;;;;;;;16.40;12.77;;;;;;;19.26;24.24;101105.00;5157500;27;20677;-65
2022/03/05 09:56:19;;;;;;;17.13;12.80;;;;;;;19.03;24.12;101108.66;5161576;27;20234;-64
2022/03/05 09:58:57;;;;;;;15.55;12.38;;;;;;;19.78;23.66;101112.84;5157471;27;20631;-63
2022/03/05 10:01:26;;;;;;;16.13;12.93;;;;;;;19.56;23.92;101103.06;5158211;27;20206;-62
2022/03/05 10:03:56;;;;;;;17.15;12.60;;;;;;;21.36;21.97;101106.63;5162591;27;20207;-63
2022/03/05 10:06:28;;;;;;;15.18;12.57;;;;;;;23.11;20.92;101092.59;5161225;27;20208;-63
2022/03/05 10:08:59;;;;;;;17.05;12.40;;;;;;;22.88;20.62;101093.94;5163942;27;20719;-63
2022/03/05 10:11:39;;;;;;;15.57;12.43;;;;;;;24.02;19.04;101093.88;5161370;27;20239;-64
2022/03/05 10:14:15;;;;;;;16.38;13.18;;;;;;;24.04;18.56;101093.69;5159661;27;20618;-63
2022/03/05 10:16:47;;;;;;;16.52;12.48;;;;;;;22.17;20.76;101094.88;5164102;27;20212;-63
2022/03/05 10:19:20;;;;;;;17.17;13.25;;;;;;;20.96;21.24;101093.97;5162670;27;20195;-63
2022/03/05 10:21:57;;;;;;;17.73;12.50;;;;;;;18.71;24.37;101093.78;5157847;27;20276;-63
2022/03/05 10:24:37;;;;;;;29.73;26.48;;;;;;;20.63;23.11;101101.91;5153954;27;20206;-64
2022/03/05 10:27:11;;;;;;;15.57;13.20;;;;;;;21.04;22.10;101094.63;5159843;27;20409;-63
2022/03/05 10:29:39;;;;;;;16.98;13.07;;;;;;;24.24;18.78;101086.25;5161075;27;20208;-63
2022/03/05 10:32:11;;;;;;;17.83;13.43;;;;;;;24.76;18.66;101081.31;5159355;27;20214;-63
2022/03/05 10:34:57;;;;;;;18.17;14.20;;;;;;;21.40;21.35;101083.59;5159023;27;20235;-63
2022/03/05 10:37:28;;;;;;;14.20;12.70;;;;;;;22.60;20.72;101079.88;5162246;27;20211;-63
2022/03/05 10:40:05;;;;;;;15.13;13.52;;;;;;;21.55;21.41;101079.91;5167170;27;20284;-63
2022/03/05 10:42:38;;;;;;;19.55;14.40;;;;;;;22.25;21.00;101082.03;5163058;27;20234;-64
2022/03/05 10:45:08;;;;;;;19.38;13.82;;;;;;;22.71;20.68;101079.19;5163781;27;20208;-64
2022/03/05 10:47:59;;;;;;;17.27;15.07;;;;;;;23.32;20.55;101069.78;5151977;27;20212;-63
2022/03/05 10:50:47;;;;;;;19.60;14.02;;;;;;;22.68;20.62;101074.22;5162815;27;20196;-63
2022/03/05 10:53:22;;;;;;;18.38;15.20;;;;;;;18.53;23.75;101070.97;5167981;27;20257;-62
2022/03/05 10:55:51;;;;;;;20.27;15.52;;;;;;;18.66;25.62;101076.53;5162599;27;20227;-63
2022/03/05 10:58:31;;;;;;;19.48;15.20;;;;;;;19.98;22.38;101080.69;5165337;27;20204;-64
2022/03/05 11:00:59;;;;;;;17.05;14.32;;;;;;;20.11;23.23;101072.72;5167026;27;20212;-64
2022/03/05 11:03:28;;;;;;;18.90;15.57;;;;;;;21.30;22.62;101066.94;5164135;27;20699;-64
2022/03/05 11:05:55;;;;;;;18.42;14.77;;;;;;;20.73;22.50;101066.50;5159958;27;20240;-63
2022/03/05 11:08:24;;;;;;;17.48;14.70;;;;;;;16.10;26.14;101074.09;5166029;27;20318;-64
2022/03/05 11:10:53;;;;;;;22.00;16.27;;;;;;;15.07;28.47;101072.00;5161914;27;20764;-63
2022/03/05 11:13:21;;;;;;;19.25;15.57;;;;;;;15.93;28.10;101068.94;5167536;27;20633;-63
2022/03/05 11:15:48;;;;;;;18.63;15.20;;;;;;;14.76;29.12;101063.72;5165515;27;20220;-64
2022/03/05 11:18:18;;;;;;;29.38;16.23;;;;;;;14.16;30.66;101065.53;5162250;27;20211;-63
2022/03/05 11:20:49;;;;;;;18.42;15.00;;;;;;;15.01;30.49;101056.63;5164645;27;20202;-64
2022/03/05 11:23:17;;;;;;;17.88;14.55;;;;;;;15.77;28.96;101054.56;5159307;27;20650;-64
2022/03/05 11:25:45;;;;;;;18.40;14.50;;;;;;;16.34;27.28;101041.13;5166259;27;20541;-63
2022/03/05 11:28:20;;;;;;;22.00;15.98;;;;;;;16.40;28.07;101045.78;5163489;27;20601;-64
2022/03/05 11:30:47;;;;;;;20.10;14.20;;;;;;;17.33;25.77;101037.78;5166362;27;20558;-63